createdAt,value
2018-06-28T00:03:50.998Z,2.53
2018-06-28T00:08:54.929Z,2.40
2018-06-28T00:13:58.737Z,2.63
2018-06-28T00:19:02.843Z,2.50
2018-06-28T00:24:06.693Z,2.60
2018-06-28T00:29:10.517Z,2.80
2018-06-28T00:34:14.337Z,2.67
2018-06-28T00:39:18.162Z,3.10
2018-06-28T00:44:21.995Z,2.70
2018-06-28T00:49:26.198Z,2.60
2018-06-28T00:54:30.271Z,2.60
2018-06-28T00:59:34.102Z,2.60
2018-06-28T01:04:37.943Z,2.63
2018-06-28T01:09:41.768Z,3.20
2018-06-28T01:14:45.677Z,2.97
2018-06-28T01:19:49.518Z,3.17
2018-06-28T01:24:53.641Z,2.60
2018-06-28T01:29:57.698Z,2.80
2018-06-28T01:35:01.541Z,3.03
2018-06-28T01:40:05.474Z,2.90
2018-06-28T01:45:09.550Z,2.60
2018-06-28T01:50:13.626Z,2.80
2018-06-28T01:55:17.445Z,2.90
2018-06-28T02:00:21.534Z,2.80
2018-06-28T02:05:25.677Z,2.83
2018-06-28T02:10:29.502Z,2.80
2018-06-28T02:15:33.966Z,2.90
2018-06-28T02:20:38.302Z,3.20
2018-06-28T02:25:42.402Z,2.97
2018-06-28T02:30:46.256Z,2.93
2018-06-28T02:35:50.089Z,3.07
2018-06-28T02:40:53.909Z,3.50
2018-06-28T02:45:57.748Z,3.10
2018-06-28T02:51:01.686Z,3.00
2018-06-28T02:56:05.718Z,3.30
2018-06-28T03:01:09.558Z,3.60
2018-06-28T03:06:13.606Z,3.37
2018-06-28T03:11:17.413Z,3.20
2018-06-28T03:16:21.220Z,3.30
2018-06-28T03:21:25.044Z,3.20
2018-06-28T03:26:29.149Z,3.10
2018-06-28T03:31:33.187Z,3.40
2018-06-28T03:36:37.702Z,3.10
2018-06-28T03:41:41.957Z,2.90
2018-06-28T03:46:45.794Z,3.40
2018-06-28T03:51:49.604Z,3.73
2018-06-28T03:56:53.418Z,3.73
2018-06-28T04:01:57.485Z,3.17
2018-06-28T04:07:01.618Z,3.37
2018-06-28T04:12:05.450Z,3.73
2018-06-28T04:17:09.273Z,3.50
2018-06-28T04:22:17.542Z,4.10
2018-06-28T04:27:21.404Z,4.00
2018-06-28T04:32:25.430Z,3.58
2018-06-28T04:37:29.265Z,3.90
2018-06-28T04:42:33.092Z,3.50
2018-06-28T04:47:37.004Z,3.50
2018-06-28T04:52:40.886Z,3.70
2018-06-28T04:57:44.713Z,3.97
2018-06-28T05:02:48.531Z,4.10
2018-06-28T05:07:52.389Z,3.90
2018-06-28T05:12:56.486Z,4.00
2018-06-28T05:18:00.340Z,3.80
2018-06-28T05:23:04.150Z,3.53
2018-06-28T05:28:08.193Z,3.53
2018-06-28T05:33:12.217Z,3.90
2018-06-28T05:38:16.033Z,3.27
2018-06-28T05:43:19.838Z,3.33
2018-06-28T05:48:23.682Z,2.80
2018-06-28T05:53:27.726Z,2.60
2018-06-28T05:58:31.550Z,2.60
2018-06-28T06:03:35.365Z,2.37
2018-06-28T06:08:39.193Z,2.30
2018-06-28T06:13:43.000Z,2.17
2018-06-28T06:18:47.043Z,2.30
2018-06-28T06:23:50.857Z,2.10
2018-06-28T06:28:54.661Z,2.10
2018-06-28T06:33:58.715Z,2.10
2018-06-28T06:39:02.804Z,2.30
2018-06-28T06:44:07.015Z,2.10
2018-06-28T06:49:10.885Z,2.30
2018-06-28T06:54:14.749Z,2.13
2018-06-28T06:59:18.543Z,2.30
2018-06-28T07:04:22.365Z,2.37
2018-06-28T07:09:26.490Z,2.20
2018-06-28T07:14:30.305Z,2.43
2018-06-28T07:19:34.222Z,2.60
2018-06-28T07:24:38.266Z,2.43
2018-06-28T07:29:42.061Z,2.30
2018-06-28T07:34:46.102Z,2.23
2018-06-28T07:39:49.910Z,2.03
2018-06-28T07:44:53.705Z,2.60
2018-06-28T07:49:57.637Z,2.40
2018-06-28T07:55:01.694Z,2.60
2018-06-28T08:00:06.345Z,2.67
2018-06-28T08:05:10.142Z,2.70
2018-06-28T08:10:14.211Z,2.50
2018-06-28T08:15:18.049Z,2.17
2018-06-28T08:20:21.854Z,2.20
2018-06-28T08:25:25.674Z,2.10
2018-06-28T08:30:29.505Z,2.50
2018-06-28T08:35:33.547Z,2.33
2018-06-28T08:40:37.349Z,2.20
2018-06-28T08:45:41.174Z,2.13
2018-06-28T08:50:45.606Z,2.37
2018-06-28T08:55:49.405Z,2.60
2018-06-28T09:00:53.448Z,2.30
2018-06-28T09:05:57.245Z,2.50
2018-06-28T09:11:01.289Z,2.27
2018-06-28T09:16:05.498Z,2.50
2018-06-28T09:21:09.319Z,2.30
2018-06-28T09:26:13.366Z,2.58
2018-06-28T09:31:17.462Z,2.70
2018-06-28T09:36:21.505Z,2.70
2018-06-28T09:41:25.612Z,2.85
2018-06-28T09:46:29.434Z,2.50
2018-06-28T09:51:33.509Z,2.70
2018-06-28T09:56:37.325Z,2.57
2018-06-28T10:01:41.126Z,2.60
2018-06-28T10:06:44.991Z,2.50
2018-06-28T10:11:49.006Z,2.73
2018-06-28T10:16:52.829Z,2.50
2018-06-28T10:21:56.862Z,2.70
2018-06-28T10:27:00.661Z,2.50
2018-06-28T10:32:04.714Z,2.52
2018-06-28T10:37:08.754Z,2.40
2018-06-28T10:42:12.581Z,2.67
2018-06-28T10:47:16.650Z,2.57
2018-06-28T10:52:20.440Z,2.70
2018-06-28T10:57:24.237Z,2.60
2018-06-28T11:02:28.041Z,2.93
2018-06-28T11:07:31.880Z,2.50
2018-06-28T11:12:35.688Z,2.57
2018-06-28T11:17:39.510Z,2.30
2018-06-28T11:22:43.309Z,2.57
2018-06-28T11:27:47.358Z,2.40
2018-06-28T11:32:51.413Z,2.23
2018-06-28T11:37:55.502Z,2.40
2018-06-28T11:42:59.575Z,2.53
2018-06-28T11:48:03.610Z,2.00
2018-06-28T11:53:07.749Z,2.07
2018-06-28T11:58:11.554Z,2.27
2018-06-28T12:03:15.660Z,2.03
2018-06-28T12:08:19.709Z,2.07
2018-06-28T12:13:23.588Z,2.30
2018-06-28T12:18:27.634Z,2.23
2018-06-28T12:23:31.900Z,1.97
2018-06-28T12:28:35.949Z,2.20
2018-06-28T12:33:39.760Z,2.10
2018-06-28T12:38:43.625Z,1.90
2018-06-28T12:43:47.701Z,2.13
2018-06-28T12:48:51.613Z,2.00
2018-06-28T12:53:55.441Z,1.93
2018-06-28T12:59:03.661Z,1.70
2018-06-28T13:04:07.476Z,2.00
2018-06-28T13:09:15.709Z,1.93
2018-06-28T13:14:19.511Z,2.00
2018-06-28T13:19:23.838Z,1.90
2018-06-28T13:24:27.633Z,2.07
2018-06-28T13:29:31.463Z,1.97
2018-06-28T13:34:36.100Z,2.00
2018-06-28T13:39:40.309Z,1.70
2018-06-28T13:44:44.118Z,2.10
2018-06-28T13:49:48.517Z,1.80
2018-06-28T13:54:52.321Z,1.90
2018-06-28T13:59:56.133Z,2.10
2018-06-28T14:05:00.177Z,2.17
2018-06-28T14:10:10.638Z,2.00
2018-06-28T14:15:14.472Z,1.80
2018-06-28T14:20:18.289Z,1.80
2018-06-28T14:25:22.090Z,2.40
2018-06-28T14:30:26.142Z,2.13
2018-06-28T14:35:29.954Z,2.17
2018-06-28T14:40:33.813Z,2.27
2018-06-28T14:45:37.639Z,2.20
2018-06-28T14:50:41.808Z,1.90
2018-06-28T14:55:45.658Z,1.83
2018-06-28T15:00:49.470Z,1.80
2018-06-28T15:05:53.301Z,2.00
2018-06-28T15:10:57.357Z,2.23
2018-06-28T15:16:01.476Z,2.00
2018-06-28T15:21:05.316Z,2.60
2018-06-28T15:26:09.313Z,1.83
2018-06-28T15:31:13.151Z,2.23
2018-06-28T15:36:16.944Z,1.83
2018-06-28T15:41:20.825Z,2.10
2018-06-28T15:46:24.677Z,1.83
2018-06-28T15:51:28.681Z,1.80
2018-06-28T15:56:32.539Z,2.00
2018-06-28T16:01:36.361Z,2.10
2018-06-28T16:06:40.490Z,1.93
2018-06-28T16:11:44.553Z,2.10
2018-06-28T16:16:48.389Z,1.90
2018-06-28T16:21:52.220Z,2.00
2018-06-28T16:26:56.468Z,1.90
2018-06-28T16:32:00.280Z,1.80
2018-06-28T16:37:05.122Z,2.20
2018-06-28T16:42:08.961Z,2.07
2018-06-28T16:47:12.782Z,2.20
2018-06-28T16:52:16.986Z,1.90
2018-06-28T16:57:20.918Z,2.30
2018-06-28T17:02:25.789Z,2.20
2018-06-28T17:07:29.612Z,2.13
2018-06-28T17:12:33.539Z,1.90
2018-06-28T17:17:37.345Z,2.10
2018-06-28T17:22:41.154Z,2.30
2018-06-28T17:27:44.958Z,2.30
2018-06-28T17:32:48.833Z,2.20
2018-06-28T17:37:52.605Z,2.00
2018-06-28T17:42:56.466Z,2.30
2018-06-28T17:48:00.603Z,1.80
2018-06-28T17:53:04.449Z,2.10
2018-06-28T17:58:08.300Z,2.10
2018-06-28T18:03:12.126Z,2.40
2018-06-28T18:08:16.199Z,2.03
2018-06-28T18:13:20.281Z,2.20
2018-06-28T18:18:24.101Z,2.30
2018-06-28T18:23:27.965Z,2.30
2018-06-28T18:28:32.028Z,2.77
2018-06-28T18:33:35.942Z,2.17
2018-06-28T18:38:40.047Z,2.30
2018-06-28T18:43:44.129Z,2.17
2018-06-28T18:48:48.358Z,2.23
2018-06-28T18:53:52.197Z,2.30
2018-06-28T18:58:56.029Z,2.40
2018-06-28T19:03:59.855Z,2.20
2018-06-28T19:09:05.733Z,2.17
2018-06-28T19:14:15.095Z,2.07
2018-06-28T19:19:18.969Z,2.40
2018-06-28T19:24:22.837Z,2.20
2018-06-28T19:29:32.030Z,2.20
2018-06-28T19:34:35.839Z,2.70
2018-06-28T19:39:44.963Z,2.10
2018-06-28T19:44:49.039Z,2.10
2018-06-28T19:49:58.361Z,2.20
2018-06-28T19:55:02.173Z,2.20
2018-06-28T20:00:06.081Z,2.17
2018-06-28T20:05:09.796Z,2.37
2018-06-28T20:10:13.625Z,2.35
2018-06-28T20:15:23.025Z,2.10
2018-06-28T20:20:27.314Z,2.40
2018-06-28T20:25:31.148Z,2.20
2018-06-28T20:30:40.274Z,2.30
2018-06-28T20:35:44.373Z,2.20
2018-06-28T20:40:48.545Z,2.00
2018-06-28T20:45:52.377Z,2.20
2018-06-28T20:50:56.543Z,2.40
2018-06-28T20:56:00.514Z,2.40
2018-06-28T21:01:04.442Z,2.30
2018-06-28T21:06:08.255Z,2.23
2018-06-28T21:11:12.307Z,2.20
2018-06-28T21:16:16.121Z,2.37
2018-06-28T21:21:20.034Z,2.50
2018-06-28T21:26:24.086Z,2.30
2018-06-28T21:31:27.880Z,2.30
2018-06-28T21:36:31.676Z,2.70
2018-06-28T21:41:35.600Z,2.67
2018-06-28T21:46:39.373Z,2.60
2018-06-28T21:51:43.193Z,2.50
2018-06-28T21:56:47.000Z,2.20
2018-06-28T22:01:52.918Z,2.90
2018-06-28T22:06:56.731Z,3.47
2018-06-28T22:12:00.569Z,3.10
2018-06-28T22:17:04.409Z,2.90
2018-06-28T22:22:08.277Z,2.90
2018-06-28T22:27:12.335Z,2.83
2018-06-28T22:32:16.396Z,3.10
2018-06-28T22:37:20.452Z,2.90
2018-06-28T22:42:24.258Z,2.80
2018-06-28T22:47:28.331Z,2.90
2018-06-28T22:52:32.570Z,3.00
2018-06-28T22:57:36.383Z,3.20
2018-06-28T23:02:40.191Z,2.70
2018-06-28T23:07:43.997Z,2.60
2018-06-28T23:12:48.039Z,2.90
2018-06-28T23:17:51.837Z,3.13
2018-06-28T23:22:55.931Z,3.07
2018-06-28T23:27:59.739Z,2.90
2018-06-28T23:33:03.804Z,3.00
2018-06-28T23:38:07.583Z,3.30
2018-06-28T23:43:11.445Z,3.30
2018-06-28T23:48:15.513Z,3.67
2018-06-28T23:53:19.317Z,3.53
2018-06-28T23:58:23.116Z,2.83
